createdAt,value
2018-02-13T00:02:21.447Z,6.65
2018-02-13T00:04:49.279Z,5.93
2018-02-13T00:07:17.022Z,6.03
2018-02-13T00:09:44.721Z,5.82
2018-02-13T00:12:12.367Z,6.07
2018-02-13T00:14:40.131Z,5.70
2018-02-13T00:17:08.081Z,5.43
2018-02-13T00:19:35.782Z,6.07
2018-02-13T00:22:03.511Z,6.30
2018-02-13T00:24:31.194Z,5.50
2018-02-13T00:26:58.939Z,6.35
2018-02-13T00:29:26.769Z,5.72
2018-02-13T00:31:54.462Z,5.55
2018-02-13T00:34:22.292Z,5.10
2018-02-13T00:36:49.978Z,6.40
2018-02-13T00:39:17.723Z,5.78
2018-02-13T00:41:46.832Z,6.10
2018-02-13T00:44:14.552Z,5.43
2018-02-13T00:46:42.275Z,5.57
2018-02-13T00:49:10.074Z,5.32
2018-02-13T00:51:37.840Z,5.82
2018-02-13T00:54:05.569Z,5.60
2018-02-13T00:56:33.969Z,5.18
2018-02-13T00:59:01.758Z,5.80
2018-02-13T01:01:29.510Z,5.93
2018-02-13T01:03:57.182Z,6.03
2018-02-13T01:06:25.581Z,4.62
2018-02-13T01:08:53.327Z,5.20
2018-02-13T01:11:21.069Z,5.40
2018-02-13T01:13:48.812Z,5.47
2018-02-13T01:16:16.619Z,6.03
2018-02-13T01:18:44.403Z,5.07
2018-02-13T01:21:12.134Z,4.93
2018-02-13T01:23:39.890Z,6.10
2018-02-13T01:26:07.649Z,5.40
2018-02-13T01:28:35.386Z,6.30
2018-02-13T01:31:03.093Z,5.75
2018-02-13T01:33:30.795Z,5.78
2018-02-13T01:35:58.647Z,5.20
2018-02-13T01:38:26.352Z,5.95
2018-02-13T01:40:54.131Z,4.53
2018-02-13T01:43:21.839Z,5.37
2018-02-13T01:45:49.592Z,4.97
2018-02-13T01:48:17.293Z,5.25
2018-02-13T01:50:45.058Z,5.20
2018-02-13T01:53:12.777Z,4.93
2018-02-13T01:55:40.478Z,5.03
2018-02-13T01:58:08.556Z,6.03
2018-02-13T02:00:36.250Z,5.40
2018-02-13T02:03:04.015Z,6.62
2018-02-13T02:05:31.700Z,4.90
2018-02-13T02:07:59.477Z,5.20
2018-02-13T02:10:27.178Z,5.25
2018-02-13T02:12:54.874Z,4.80
2018-02-13T02:15:22.618Z,5.85
2018-02-13T02:17:50.303Z,4.85
2018-02-13T02:20:18.029Z,5.45
2018-02-13T02:22:45.759Z,5.60
2018-02-13T02:25:13.509Z,5.55
2018-02-13T02:27:41.215Z,5.18
2018-02-13T02:30:09.113Z,5.12
2018-02-13T02:32:36.835Z,5.32
2018-02-13T02:35:04.514Z,6.12
2018-02-13T02:37:32.255Z,6.15
2018-02-13T02:39:59.920Z,4.30
2018-02-13T02:42:49.052Z,5.20
2018-02-13T02:45:16.788Z,4.85
2018-02-13T02:47:44.612Z,6.10
2018-02-13T02:50:12.333Z,4.68
2018-02-13T02:52:40.168Z,5.45
2018-02-13T02:55:07.858Z,5.43
2018-02-13T02:57:35.590Z,5.43
2018-02-13T03:00:03.452Z,4.95
2018-02-13T03:02:31.180Z,4.93
2018-02-13T03:04:58.921Z,4.68
2018-02-13T03:07:26.711Z,5.50
2018-02-13T03:09:54.404Z,5.45
2018-02-13T03:12:22.195Z,4.43
2018-02-13T03:14:49.935Z,5.25
2018-02-13T03:17:18.227Z,4.30
2018-02-13T03:19:45.998Z,4.70
2018-02-13T03:22:13.703Z,4.28
2018-02-13T03:24:41.455Z,5.20
2018-02-13T03:27:09.249Z,4.60
2018-02-13T03:29:37.082Z,5.62
2018-02-13T03:32:04.811Z,5.00
2018-02-13T03:34:32.545Z,5.47
2018-02-13T03:37:01.008Z,4.55
2018-02-13T03:39:28.732Z,4.35
2018-02-13T03:41:56.471Z,5.25
2018-02-13T03:44:24.179Z,5.00
2018-02-13T03:46:51.943Z,5.87
2018-02-13T03:49:19.665Z,4.82
2018-02-13T03:51:47.410Z,5.78
2018-02-13T03:54:15.118Z,4.68
2018-02-13T03:56:42.913Z,4.97
2018-02-13T03:59:10.601Z,5.15
2018-02-13T04:01:38.356Z,5.80
2018-02-13T04:04:06.125Z,5.05
2018-02-13T04:06:33.845Z,5.10
2018-02-13T04:09:01.700Z,5.05
2018-02-13T04:11:29.416Z,5.35
2018-02-13T04:13:57.164Z,5.80
2018-02-13T04:16:24.901Z,4.62
2018-02-13T04:18:52.643Z,7.12
2018-02-13T04:21:20.423Z,5.70
2018-02-13T04:23:49.046Z,5.43
2018-02-13T04:26:16.769Z,5.20
2018-02-13T04:28:44.465Z,5.50
2018-02-13T04:31:12.208Z,6.82
2018-02-13T04:33:39.976Z,5.20
2018-02-13T04:36:07.735Z,5.25
2018-02-13T04:38:35.475Z,6.65
2018-02-13T04:41:03.310Z,6.50
2018-02-13T04:43:31.067Z,6.95
2018-02-13T04:45:58.890Z,5.85
2018-02-13T04:48:26.600Z,6.00
2018-02-13T04:50:54.480Z,5.72
2018-02-13T04:53:22.209Z,5.10
2018-02-13T04:55:49.993Z,5.53
2018-02-13T04:58:18.505Z,4.68
2018-02-13T05:00:46.255Z,4.70
2018-02-13T05:03:14.018Z,4.55
2018-02-13T05:05:42.123Z,12.77
2018-02-13T05:08:09.888Z,4.85
2018-02-13T05:10:37.622Z,5.35
2018-02-13T05:13:05.385Z,6.60
2018-02-13T05:15:33.110Z,5.37
2018-02-13T05:18:00.832Z,5.22
2018-02-13T05:20:28.635Z,5.10
2018-02-13T05:22:56.351Z,5.72
2018-02-13T05:25:24.177Z,7.37
2018-02-13T05:27:51.886Z,5.00
2018-02-13T05:30:19.705Z,6.50
2018-02-13T05:32:47.465Z,6.00
2018-02-13T05:35:15.285Z,6.55
2018-02-13T05:37:43.014Z,5.70
2018-02-13T05:40:10.794Z,5.90
2018-02-13T05:42:38.518Z,28.77
2018-02-13T05:45:06.249Z,8.07
2018-02-13T05:47:33.990Z,6.32
2018-02-13T05:50:01.731Z,5.72
2018-02-13T05:52:29.513Z,4.85
2018-02-13T05:54:57.232Z,6.07
2018-02-13T05:57:25.621Z,6.93
2018-02-13T05:59:53.332Z,5.82
2018-02-13T06:02:21.173Z,5.40
2018-02-13T06:04:48.915Z,6.55
2018-02-13T06:07:16.710Z,5.53
2018-02-13T06:09:44.488Z,4.70
2018-02-13T06:12:12.366Z,6.18
2018-02-13T06:14:40.272Z,5.12
2018-02-13T06:17:08.165Z,5.22
2018-02-13T06:19:35.959Z,5.80
2018-02-13T06:22:03.768Z,4.90
2018-02-13T06:24:31.542Z,5.90
2018-02-13T06:27:00.077Z,4.50
2018-02-13T06:29:27.787Z,5.20
2018-02-13T06:31:55.764Z,5.43
2018-02-13T06:34:23.619Z,5.53
2018-02-13T06:36:51.529Z,6.55
2018-02-13T06:39:19.579Z,6.22
2018-02-13T06:41:47.422Z,6.07
2018-02-13T06:44:15.159Z,6.25
2018-02-13T06:46:42.905Z,6.12
2018-02-13T06:49:10.758Z,4.90
2018-02-13T06:51:38.601Z,5.45
2018-02-13T06:54:06.386Z,5.70
2018-02-13T06:56:34.170Z,5.55
2018-02-13T06:59:01.927Z,5.20
2018-02-13T07:01:29.698Z,6.00
2018-02-13T07:03:57.441Z,6.20
2018-02-13T07:06:25.211Z,6.00
2018-02-13T07:08:53.013Z,5.22
2018-02-13T07:11:20.794Z,6.95
2018-02-13T07:13:48.565Z,6.45
2018-02-13T07:16:16.321Z,6.00
2018-02-13T07:18:44.050Z,5.62
2018-02-13T07:21:11.819Z,5.32
2018-02-13T07:23:39.570Z,6.87
2018-02-13T07:26:07.344Z,6.43
2018-02-13T07:28:35.091Z,7.80
2018-02-13T07:31:02.811Z,6.50
2018-02-13T07:33:30.528Z,7.12
2018-02-13T07:35:58.247Z,6.53
2018-02-13T07:38:25.971Z,7.50
2018-02-13T07:40:53.668Z,6.50
2018-02-13T07:43:21.446Z,6.80
2018-02-13T07:45:49.138Z,6.82
2018-02-13T07:48:17.278Z,6.90
2018-02-13T07:50:44.981Z,8.13
2018-02-13T07:53:12.769Z,7.57
2018-02-13T07:55:40.589Z,7.37
2018-02-13T07:58:08.302Z,7.50
2018-02-13T08:00:35.994Z,7.37
2018-02-13T08:03:03.723Z,8.35
2018-02-13T08:05:31.418Z,7.20
2018-02-13T08:07:59.148Z,8.60
2018-02-13T08:10:26.931Z,7.32
2018-02-13T08:12:54.711Z,8.02
2018-02-13T08:15:22.407Z,8.02
2018-02-13T08:17:50.188Z,7.97
2018-02-13T08:20:17.918Z,7.45
2018-02-13T08:22:45.719Z,7.05
2018-02-13T08:25:13.583Z,7.75
2018-02-13T08:27:41.397Z,7.07
2018-02-13T08:30:09.078Z,6.68
2018-02-13T08:32:36.831Z,6.95
2018-02-13T08:35:04.581Z,6.70
2018-02-13T08:37:32.299Z,6.82
2018-02-13T08:40:00.066Z,8.25
2018-02-13T08:42:27.840Z,8.05
2018-02-13T08:44:55.585Z,7.80
2018-02-13T08:47:23.308Z,8.50
2018-02-13T08:49:51.015Z,8.27
2018-02-13T08:52:18.760Z,7.95
2018-02-13T08:54:46.495Z,7.70
2018-02-13T08:57:14.306Z,7.62
2018-02-13T08:59:42.038Z,7.62
2018-02-13T09:02:09.763Z,8.00
2018-02-13T09:04:37.477Z,8.07
2018-02-13T09:07:05.191Z,8.45
2018-02-13T09:09:32.961Z,7.90
2018-02-13T09:12:00.767Z,8.52
2018-02-13T09:14:28.467Z,7.80
2018-02-13T09:16:56.227Z,8.15
2018-02-13T09:19:24.038Z,7.95
2018-02-13T09:21:51.767Z,7.75
2018-02-13T09:24:19.545Z,8.25
2018-02-13T09:26:47.277Z,7.35
2018-02-13T09:29:14.991Z,7.82
2018-02-13T09:31:42.783Z,8.57
2018-02-13T09:34:10.480Z,8.38
2018-02-13T09:36:38.225Z,8.45
2018-02-13T09:39:05.955Z,7.40
2018-02-13T09:41:33.706Z,10.02
2018-02-13T09:44:01.423Z,9.70
2018-02-13T09:46:29.144Z,9.32
2018-02-13T09:48:56.860Z,7.47
2018-02-13T09:51:24.659Z,7.40
2018-02-13T09:53:52.359Z,7.85
2018-02-13T09:56:20.111Z,6.70
2018-02-13T09:58:47.841Z,6.93
2018-02-13T10:01:15.645Z,6.28
2018-02-13T10:03:43.364Z,7.00
2018-02-13T10:06:11.140Z,7.35
2018-02-13T10:08:38.882Z,6.68
2018-02-13T10:11:06.602Z,5.90
2018-02-13T10:13:34.283Z,6.28
2018-02-13T10:16:01.998Z,5.97
2018-02-13T10:18:29.615Z,6.00
2018-02-13T10:20:57.326Z,6.15
2018-02-13T10:23:25.017Z,5.77
2018-02-13T10:25:52.743Z,5.15
2018-02-13T10:28:20.448Z,6.57
2018-02-13T10:30:48.186Z,5.27
2018-02-13T10:33:15.818Z,5.97
2018-02-13T10:35:43.498Z,6.57
2018-02-13T10:38:11.178Z,6.03
2018-02-13T10:40:38.776Z,5.43
2018-02-13T10:43:06.553Z,6.07
2018-02-13T10:45:34.156Z,5.83
2018-02-13T10:48:01.828Z,5.23
2018-02-13T10:50:29.423Z,6.03
2018-02-13T10:52:57.054Z,8.23
2018-02-13T10:55:24.765Z,4.67
2018-02-13T10:57:52.399Z,6.03
2018-02-13T11:00:20.001Z,5.73
2018-02-13T11:02:47.761Z,5.20
2018-02-13T11:05:15.364Z,6.27
2018-02-13T11:07:43.019Z,5.03
2018-02-13T11:10:10.634Z,5.50
2018-02-13T11:12:38.264Z,5.00
2018-02-13T11:15:05.885Z,5.67
2018-02-13T11:17:33.547Z,5.50
2018-02-13T11:20:01.210Z,5.03
2018-02-13T11:22:28.844Z,4.93
2018-02-13T11:24:56.523Z,5.30
2018-02-13T11:27:24.114Z,4.00
2018-02-13T11:29:51.806Z,1.30
2018-02-13T11:32:19.457Z,2.20
2018-02-13T11:34:47.127Z,1.90
2018-02-13T11:37:14.763Z,1.20
2018-02-13T11:39:42.438Z,1.70
2018-02-13T11:42:10.049Z,1.43
2018-02-13T11:44:37.695Z,1.43
2018-02-13T11:47:05.295Z,1.53
2018-02-13T11:49:32.908Z,1.73
2018-02-13T11:52:00.623Z,2.03
2018-02-13T11:54:28.234Z,1.63
2018-02-13T11:56:55.879Z,1.80
2018-02-13T11:59:23.462Z,1.73
2018-02-13T12:01:51.124Z,1.93
2018-02-13T12:04:18.745Z,1.70
2018-02-13T12:06:47.135Z,1.80
2018-02-13T12:09:14.759Z,2.17
2018-02-13T12:11:42.418Z,2.00
2018-02-13T12:14:10.078Z,1.40
2018-02-13T12:16:37.703Z,1.93
2018-02-13T12:19:05.346Z,1.60
2018-02-13T12:21:32.947Z,1.33
2018-02-13T12:24:00.547Z,1.20
2018-02-13T12:26:28.361Z,1.50
2018-02-13T12:28:56.006Z,1.60
2018-02-13T12:31:23.711Z,1.60
2018-02-13T12:33:51.326Z,2.00
2018-02-13T12:36:18.971Z,1.40
2018-02-13T12:38:46.630Z,1.30
2018-02-13T12:41:14.291Z,1.80
2018-02-13T12:43:41.921Z,1.57
2018-02-13T12:46:10.178Z,1.57
2018-02-13T12:48:37.796Z,1.40
2018-02-13T12:51:05.411Z,1.30
2018-02-13T12:53:33.068Z,1.63
2018-02-13T12:56:00.649Z,2.57
2018-02-13T12:58:28.298Z,1.60
2018-02-13T13:00:55.894Z,1.47
2018-02-13T13:03:23.532Z,1.40
2018-02-13T13:05:51.187Z,1.70
2018-02-13T13:08:18.849Z,1.40
2018-02-13T13:10:46.480Z,1.57
2018-02-13T13:13:14.122Z,1.60
2018-02-13T13:15:41.746Z,1.73
2018-02-13T13:18:09.381Z,1.40
2018-02-13T13:20:37.051Z,1.37
2018-02-13T13:23:04.669Z,5.20
2018-02-13T13:25:32.282Z,2.20
2018-02-13T13:27:59.914Z,1.60
2018-02-13T13:30:27.526Z,2.13
2018-02-13T13:32:55.161Z,1.47
2018-02-13T13:35:22.771Z,1.57
2018-02-13T13:37:50.469Z,1.57
2018-02-13T13:40:18.130Z,2.30
2018-02-13T13:42:45.811Z,1.70
2018-02-13T13:45:13.428Z,2.53
2018-02-13T13:47:41.094Z,2.77
2018-02-13T13:50:08.712Z,2.70
2018-02-13T13:52:36.536Z,2.70
2018-02-13T13:55:04.164Z,2.80
2018-02-13T13:57:31.762Z,7.83
2018-02-13T13:59:59.406Z,3.90
2018-02-13T14:02:27.074Z,2.47
2018-02-13T14:04:54.770Z,2.73
2018-02-13T14:07:22.519Z,2.63
2018-02-13T14:09:50.222Z,2.77
2018-02-13T14:12:17.842Z,2.60
2018-02-13T14:14:45.498Z,2.50
2018-02-13T14:17:13.706Z,2.20
2018-02-13T14:19:42.075Z,2.90
2018-02-13T14:22:09.734Z,2.80
2018-02-13T14:24:37.432Z,3.23
2018-02-13T14:27:05.071Z,2.67
2018-02-13T14:29:32.776Z,2.70
2018-02-13T14:32:00.401Z,5.23
2018-02-13T14:34:28.046Z,3.20
2018-02-13T14:36:55.712Z,3.00
2018-02-13T14:39:23.408Z,2.50
2018-02-13T14:41:51.114Z,9.07
2018-02-13T14:44:18.775Z,2.93
2018-02-13T14:46:46.374Z,2.40
2018-02-13T14:49:14.019Z,2.70
2018-02-13T14:51:41.628Z,2.47
2018-02-13T14:54:09.263Z,2.50
2018-02-13T14:56:36.866Z,2.50
2018-02-13T14:59:04.543Z,3.10
2018-02-13T15:01:32.138Z,2.60
2018-02-13T15:03:59.875Z,2.77
2018-02-13T15:06:27.531Z,3.40
2018-02-13T15:08:55.184Z,2.40
2018-02-13T15:11:22.789Z,2.50
2018-02-13T15:13:50.547Z,17.80
2018-02-13T15:16:18.237Z,2.20
2018-02-13T15:18:45.902Z,2.07
2018-02-13T15:21:13.487Z,2.30
2018-02-13T15:23:41.149Z,2.60
2018-02-13T15:26:08.790Z,3.67
2018-02-13T15:28:36.442Z,7.27
2018-02-13T15:31:04.072Z,3.73
2018-02-13T15:33:31.703Z,2.27
2018-02-13T15:35:59.318Z,2.20
2018-02-13T15:38:26.967Z,2.70
2018-02-13T15:40:54.654Z,2.20
2018-02-13T15:43:22.292Z,2.20
2018-02-13T15:45:49.889Z,2.27
2018-02-13T15:48:17.584Z,2.63
2018-02-13T15:50:45.222Z,2.70
2018-02-13T15:53:12.855Z,2.87
2018-02-13T15:55:40.515Z,2.20
2018-02-13T15:58:08.190Z,2.80
2018-02-13T16:00:35.823Z,2.70
2018-02-13T16:03:03.435Z,3.20
2018-02-13T16:05:31.122Z,3.10
2018-02-13T16:07:58.809Z,2.50
2018-02-13T16:10:26.501Z,3.30
2018-02-13T16:12:54.115Z,2.70
2018-02-13T16:15:21.761Z,2.50
2018-02-13T16:17:49.382Z,2.30
2018-02-13T16:20:17.175Z,1.57
2018-02-13T16:22:44.782Z,1.80
2018-02-13T16:25:12.414Z,2.23
2018-02-13T16:27:40.015Z,2.43
2018-02-13T16:30:07.666Z,1.77
2018-02-13T16:32:36.137Z,3.80
2018-02-13T16:35:03.760Z,1.60
2018-02-13T16:37:31.358Z,2.13
2018-02-13T16:39:59.250Z,2.73
2018-02-13T16:42:26.891Z,2.93
2018-02-13T16:44:54.595Z,3.07
2018-02-13T16:47:22.299Z,2.13
2018-02-13T16:49:49.978Z,2.43
2018-02-13T16:52:17.606Z,2.50
2018-02-13T16:54:45.386Z,2.30
2018-02-13T16:57:13.389Z,2.27
2018-02-13T16:59:41.179Z,2.37
2018-02-13T17:02:08.847Z,2.93
2018-02-13T17:04:36.472Z,1.90
2018-02-13T17:07:04.153Z,8.87
2018-02-13T17:09:32.518Z,2.77
2018-02-13T17:12:00.182Z,2.07
2018-02-13T17:14:27.796Z,2.30
2018-02-13T17:16:55.446Z,2.20
2018-02-13T17:19:23.110Z,2.03
2018-02-13T17:21:50.759Z,2.27
2018-02-13T17:24:18.836Z,2.90
2018-02-13T17:26:46.497Z,2.37
2018-02-13T17:29:14.103Z,2.20
2018-02-13T17:31:41.762Z,2.40
2018-02-13T17:34:09.366Z,2.30
2018-02-13T17:36:37.047Z,2.33
2018-02-13T17:39:04.673Z,2.97
2018-02-13T17:41:32.296Z,2.80
2018-02-13T17:43:59.984Z,2.33
2018-02-13T17:46:27.571Z,3.00
2018-02-13T17:48:55.210Z,3.43
2018-02-13T17:51:22.851Z,2.77
2018-02-13T17:53:50.498Z,3.10
2018-02-13T17:56:18.122Z,2.50
2018-02-13T17:58:45.799Z,2.33
2018-02-13T18:01:13.418Z,2.67
2018-02-13T18:03:41.114Z,3.10
2018-02-13T18:06:08.775Z,3.30
2018-02-13T18:08:36.518Z,3.57
2018-02-13T18:11:04.121Z,3.00
2018-02-13T18:13:31.892Z,2.43
2018-02-13T18:15:59.518Z,2.97
2018-02-13T18:18:27.811Z,2.90
2018-02-13T18:20:55.441Z,2.47
2018-02-13T18:23:23.079Z,2.90
2018-02-13T18:25:50.725Z,2.73
2018-02-13T18:28:18.671Z,3.05
2018-02-13T18:30:46.263Z,3.53
2018-02-13T18:33:13.944Z,3.83
2018-02-13T18:35:41.700Z,3.90
2018-02-13T18:38:09.438Z,3.83
2018-02-13T18:40:37.209Z,7.15
2018-02-13T18:43:05.026Z,5.22
2018-02-13T18:45:32.680Z,6.60
2018-02-13T18:48:00.331Z,11.50
2018-02-13T18:50:28.036Z,4.70
2018-02-13T18:55:23.410Z,3.87
2018-02-13T18:57:51.129Z,3.42
2018-02-13T19:00:18.809Z,3.60
2018-02-13T19:02:46.518Z,3.97
2018-02-13T19:05:14.734Z,3.30
2018-02-13T19:07:42.458Z,3.08
2018-02-13T19:10:10.131Z,3.70
2018-02-13T19:12:37.854Z,3.40
2018-02-13T19:15:05.529Z,3.33
2018-02-13T19:17:33.278Z,3.33
2018-02-13T19:20:01.022Z,3.10
2018-02-13T19:22:28.778Z,3.62
2018-02-13T19:24:56.465Z,3.37
2018-02-13T19:27:24.098Z,3.10
2018-02-13T19:29:51.811Z,3.67
2018-02-13T19:32:19.518Z,3.65
2018-02-13T19:34:47.253Z,3.37
2018-02-13T19:37:14.966Z,3.00
2018-02-13T19:39:42.675Z,3.55
2018-02-13T19:42:10.416Z,3.95
2018-02-13T19:44:38.255Z,3.17
2018-02-13T19:47:06.011Z,4.00
2018-02-13T19:49:33.714Z,10.65
2018-02-13T19:52:01.489Z,5.12
2018-02-13T19:54:29.163Z,3.50
2018-02-13T19:56:56.938Z,4.28
2018-02-13T19:59:24.640Z,3.55
2018-02-13T20:01:52.467Z,4.20
2018-02-13T20:04:20.124Z,3.53
2018-02-13T20:06:47.900Z,3.55
2018-02-13T20:09:15.589Z,3.40
2018-02-13T20:11:43.313Z,3.70
2018-02-13T20:14:11.236Z,3.62
2018-02-13T20:16:38.989Z,3.35
2018-02-13T20:19:06.684Z,3.83
2018-02-13T20:21:34.588Z,4.22
2018-02-13T20:24:02.268Z,3.75
2018-02-13T20:26:29.999Z,3.22
2018-02-13T20:28:57.686Z,3.85
2018-02-13T20:31:25.404Z,3.70
2018-02-13T20:33:53.071Z,3.50
2018-02-13T20:36:20.786Z,3.37
2018-02-13T20:38:48.502Z,3.20
2018-02-13T20:41:16.187Z,3.42
2018-02-13T20:43:43.925Z,3.72
2018-02-13T20:46:11.702Z,3.22
2018-02-13T20:48:39.454Z,3.20
2018-02-13T20:51:07.102Z,9.02
2018-02-13T20:53:34.974Z,3.75
2018-02-13T20:56:02.659Z,4.03
2018-02-13T20:58:30.364Z,3.62
2018-02-13T21:00:58.053Z,3.10
2018-02-13T21:03:25.779Z,3.05
2018-02-13T21:05:53.445Z,3.80
2018-02-13T21:08:21.165Z,2.97
2018-02-13T21:10:48.841Z,3.87
2018-02-13T21:13:16.710Z,3.12
2018-02-13T21:15:44.437Z,3.20
2018-02-13T21:18:12.124Z,2.97
2018-02-13T21:20:39.977Z,3.12
2018-02-13T21:23:07.670Z,2.80
2018-02-13T21:25:35.375Z,3.08
2018-02-13T21:28:03.090Z,2.62
2018-02-13T21:30:30.753Z,3.17
2018-02-13T21:32:58.629Z,3.40
2018-02-13T21:35:26.336Z,3.50
2018-02-13T21:37:54.063Z,3.30
2018-02-13T21:40:21.726Z,3.55
2018-02-13T21:42:49.422Z,2.95
2018-02-13T21:45:17.115Z,3.35
2018-02-13T21:47:44.793Z,3.40
2018-02-13T21:50:12.478Z,3.42
2018-02-13T21:52:40.165Z,3.25
2018-02-13T21:55:07.829Z,2.80
2018-02-13T21:57:35.562Z,3.12
2018-02-13T22:00:03.236Z,3.08
2018-02-13T22:02:30.983Z,3.25
2018-02-13T22:04:58.676Z,3.37
2018-02-13T22:07:26.335Z,3.00
2018-02-13T22:09:54.030Z,3.08
2018-02-13T22:12:21.702Z,4.25
2018-02-13T22:14:49.411Z,3.10
2018-02-13T22:17:17.162Z,3.80
2018-02-13T22:19:44.929Z,3.12
2018-02-13T22:22:12.609Z,3.35
2018-02-13T22:24:40.378Z,3.37
2018-02-13T22:27:08.046Z,4.30
2018-02-13T22:29:35.745Z,3.30
2018-02-13T22:32:03.398Z,3.55
2018-02-13T22:34:31.095Z,2.85
2018-02-13T22:36:58.779Z,3.00
2018-02-13T22:39:26.525Z,3.40
2018-02-13T22:41:54.188Z,3.15
2018-02-13T22:44:21.885Z,3.40
2018-02-13T22:46:49.546Z,3.92
2018-02-13T22:49:17.243Z,4.05
2018-02-13T22:51:44.928Z,3.85
2018-02-13T22:54:12.625Z,2.40
2018-02-13T22:56:40.301Z,3.20
2018-02-13T22:59:08.001Z,3.37
2018-02-13T23:01:35.669Z,2.50
2018-02-13T23:04:03.361Z,3.17
2018-02-13T23:06:31.041Z,3.60
2018-02-13T23:08:58.754Z,3.28
2018-02-13T23:11:26.466Z,4.32
2018-02-13T23:13:54.137Z,4.28
2018-02-13T23:16:21.826Z,3.80
2018-02-13T23:18:49.498Z,3.53
2018-02-13T23:21:17.192Z,4.20
2018-02-13T23:23:44.854Z,3.00
2018-02-13T23:26:12.539Z,3.25
2018-02-13T23:28:40.246Z,2.72
2018-02-13T23:31:07.935Z,3.40
2018-02-13T23:33:35.629Z,4.18
2018-02-13T23:36:03.338Z,3.28
2018-02-13T23:38:31.006Z,3.80
2018-02-13T23:40:58.726Z,4.00
2018-02-13T23:43:26.389Z,3.15
2018-02-13T23:45:54.079Z,3.75
2018-02-13T23:48:21.738Z,3.50
2018-02-13T23:50:49.443Z,3.12
2018-02-13T23:53:17.131Z,3.20
2018-02-13T23:55:44.778Z,4.05
2018-02-13T23:58:12.469Z,3.95
